createdAt,value
2023-05-06T00:04:12.934Z,42.80
2023-05-06T00:09:16.359Z,42.30
2023-05-06T00:14:19.454Z,42.10
2023-05-06T00:19:22.505Z,41.73
2023-05-06T00:24:25.539Z,41.46
2023-05-06T00:29:28.567Z,41.47
2023-05-06T00:34:31.602Z,41.61
2023-05-06T00:39:35.051Z,41.47
2023-05-06T00:44:38.224Z,41.52
2023-05-06T00:49:41.305Z,41.82
2023-05-06T00:54:45.012Z,41.82
2023-05-06T00:59:48.005Z,41.77
2023-05-06T01:04:52.168Z,41.33
2023-05-06T01:10:00.952Z,41.44
2023-05-06T01:15:31.206Z,41.34
2023-05-06T01:20:34.526Z,41.15
2023-05-06T01:25:37.616Z,41.18
2023-05-06T01:30:52.759Z,41.00
2023-05-06T01:36:01.949Z,40.79
2023-05-06T01:41:05.116Z,40.81
2023-05-06T01:46:14.603Z,40.94
2023-05-06T01:51:17.647Z,40.34
2023-05-06T01:56:20.830Z,39.92
2023-05-06T02:01:24.045Z,39.43
2023-05-06T02:06:27.295Z,39.03
2023-05-06T02:11:30.310Z,38.78
2023-05-06T02:16:38.945Z,38.72
2023-05-06T02:21:41.837Z,38.45
2023-05-06T02:26:44.674Z,38.11
2023-05-06T02:31:47.510Z,38.17
2023-05-06T02:36:51.953Z,37.35
2023-05-06T02:41:57.698Z,36.73
2023-05-06T02:47:01.305Z,35.85
2023-05-06T02:52:04.411Z,34.87
2023-05-06T02:57:07.578Z,34.09
2023-05-06T03:02:10.536Z,33.94
2023-05-06T03:07:13.433Z,34.28
2023-05-06T03:12:17.128Z,34.67
2023-05-06T03:17:20.194Z,34.66
2023-05-06T03:22:23.759Z,35.33
2023-05-06T03:27:27.720Z,35.22
2023-05-06T03:32:38.321Z,35.17
2023-05-06T03:38:03.268Z,35.11
2023-05-06T03:43:13.569Z,34.93
2023-05-06T03:48:17.223Z,34.86
2023-05-06T03:53:20.796Z,34.35
2023-05-06T03:58:25.574Z,34.21
2023-05-06T04:03:28.843Z,34.24
2023-05-06T04:08:32.093Z,34.16
2023-05-06T04:13:35.518Z,33.80
2023-05-06T04:18:44.315Z,33.30
2023-05-06T04:23:50.273Z,33.13
2023-05-06T04:28:57.844Z,32.71
2023-05-06T04:34:01.530Z,32.71
2023-05-06T04:39:07.121Z,32.36
2023-05-06T04:44:11.506Z,32.38
2023-05-06T04:49:15.828Z,32.37
2023-05-06T04:54:18.848Z,32.49
2023-05-06T04:59:22.093Z,32.38
2023-05-06T05:04:25.018Z,31.94
2023-05-06T05:09:28.625Z,31.77
2023-05-06T05:14:32.612Z,31.57
2023-05-06T05:19:36.378Z,31.58
2023-05-06T05:24:39.481Z,31.34
2023-05-06T05:29:42.458Z,31.05
2023-05-06T05:34:46.927Z,30.68
2023-05-06T05:39:51.032Z,30.57
2023-05-06T05:44:54.746Z,30.52
2023-05-06T05:49:57.635Z,30.28
2023-05-06T05:55:00.531Z,30.46
2023-05-06T06:00:04.469Z,30.15
2023-05-06T06:05:09.700Z,30.00
2023-05-06T06:10:14.346Z,29.91
2023-05-06T06:15:19.012Z,29.73
2023-05-06T06:20:22.568Z,29.62
2023-05-06T06:25:25.489Z,29.40
2023-05-06T06:30:29.551Z,29.16
2023-05-06T06:35:32.779Z,29.24
2023-05-06T06:40:36.124Z,28.92
2023-05-06T06:45:39.064Z,28.77
2023-05-06T06:50:41.884Z,28.79
2023-05-06T06:55:45.600Z,28.63
2023-05-06T07:00:48.684Z,28.61
2023-05-06T07:05:51.569Z,28.42
2023-05-06T07:10:54.444Z,28.35
2023-05-06T07:15:59.162Z,28.43
2023-05-06T07:21:02.160Z,28.28
2023-05-06T07:26:05.126Z,28.10
2023-05-06T07:31:07.952Z,28.32
2023-05-06T07:36:10.940Z,27.95
2023-05-06T07:41:13.682Z,28.00
2023-05-06T07:46:16.520Z,28.35
2023-05-06T07:51:19.854Z,28.23
2023-05-06T07:56:22.666Z,28.47
2023-05-06T08:01:25.985Z,28.56
2023-05-06T08:06:28.883Z,28.71
2023-05-06T08:11:31.944Z,28.81
2023-05-06T08:16:36.062Z,29.08
2023-05-06T08:21:38.836Z,29.00
2023-05-06T08:26:42.108Z,28.95
2023-05-06T08:31:44.996Z,28.81
2023-05-06T08:36:49.277Z,29.19
2023-05-06T08:41:53.393Z,28.86
2023-05-06T08:46:56.519Z,28.58
2023-05-06T08:51:59.711Z,28.28
2023-05-06T08:57:06.448Z,28.12
2023-05-06T09:02:10.995Z,28.63
2023-05-06T09:07:14.060Z,28.18
2023-05-06T09:12:16.903Z,28.16
2023-05-06T09:17:29.740Z,28.19
2023-05-06T09:22:32.732Z,28.17
2023-05-06T09:27:37.184Z,28.27
2023-05-06T09:32:40.623Z,28.02
2023-05-06T09:37:44.637Z,28.29
2023-05-06T09:42:48.138Z,27.99
2023-05-06T09:47:51.153Z,27.74
2023-05-06T09:52:55.619Z,27.52
2023-05-06T09:57:58.913Z,27.38
2023-05-06T10:03:02.316Z,27.13
2023-05-06T10:08:06.055Z,27.44
2023-05-06T10:13:09.005Z,26.96
2023-05-06T10:18:12.118Z,26.87
2023-05-06T10:23:17.976Z,26.35
2023-05-06T10:28:31.556Z,26.74
2023-05-06T10:33:35.033Z,26.79
2023-05-06T10:38:43.150Z,26.03
2023-05-06T10:43:46.243Z,26.17
2023-05-06T10:49:08.944Z,26.49
2023-05-06T10:54:19.544Z,26.71
2023-05-06T10:59:24.703Z,26.00
2023-05-06T11:04:27.261Z,26.58
2023-05-06T11:09:31.254Z,25.79
2023-05-06T11:14:38.100Z,25.75
2023-05-06T11:19:41.070Z,25.47
2023-05-06T11:24:44.258Z,25.41
2023-05-06T11:29:47.388Z,25.45
2023-05-06T11:34:50.293Z,25.98
2023-05-06T11:39:53.181Z,25.90
2023-05-06T11:44:56.890Z,25.93
2023-05-06T11:50:00.390Z,25.59
2023-05-06T11:55:03.282Z,26.14
2023-05-06T12:00:10.384Z,26.10
2023-05-06T12:05:14.563Z,25.83
2023-05-06T12:10:17.849Z,26.07
2023-05-06T12:15:20.911Z,25.94
2023-05-06T12:20:23.972Z,26.02
2023-05-06T12:25:26.794Z,26.13
2023-05-06T12:30:34.674Z,26.20
2023-05-06T12:35:38.922Z,26.50
2023-05-06T12:40:42.951Z,26.77
2023-05-06T12:46:04.066Z,26.89
2023-05-06T12:51:19.985Z,27.31
2023-05-06T12:56:23.103Z,28.10
2023-05-06T13:01:25.930Z,28.87
2023-05-06T13:06:28.746Z,28.91
2023-05-06T13:11:31.756Z,28.83
2023-05-06T13:16:35.684Z,28.98
2023-05-06T13:21:39.488Z,29.41
2023-05-06T13:26:42.366Z,30.00
2023-05-06T13:31:45.182Z,30.33
2023-05-06T13:36:49.968Z,31.26
2023-05-06T13:41:53.196Z,31.55
2023-05-06T13:46:56.523Z,31.86
2023-05-06T13:51:59.334Z,32.05
2023-05-06T13:57:02.183Z,32.43
2023-05-06T14:02:08.708Z,32.90
2023-05-06T14:07:12.316Z,33.06
2023-05-06T14:12:15.270Z,32.89
2023-05-06T14:17:18.033Z,33.22
2023-05-06T14:22:20.842Z,33.77
2023-05-06T14:27:23.691Z,33.91
2023-05-06T14:32:26.564Z,34.03
2023-05-06T14:37:29.591Z,34.47
2023-05-06T14:42:32.810Z,34.77
2023-05-06T14:47:35.738Z,35.01
2023-05-06T14:52:40.279Z,35.70
2023-05-06T14:57:43.105Z,36.25
2023-05-06T15:02:45.890Z,36.84
2023-05-06T15:07:48.762Z,37.36
2023-05-06T15:12:51.623Z,37.91
2023-05-06T15:17:54.457Z,38.23
2023-05-06T15:22:57.462Z,38.48
2023-05-06T15:28:00.280Z,38.86
2023-05-06T15:33:03.208Z,39.29
2023-05-06T15:38:06.220Z,39.86
2023-05-06T15:43:08.988Z,40.62
2023-05-06T15:48:11.963Z,40.96
2023-05-06T15:53:14.815Z,41.27
2023-05-06T15:58:17.713Z,41.39
2023-05-06T16:03:21.036Z,41.58
2023-05-06T16:08:24.331Z,42.09
2023-05-06T16:13:27.213Z,42.45
2023-05-06T16:18:40.517Z,42.67
2023-05-06T16:23:43.406Z,43.15
2023-05-06T16:28:46.166Z,43.49
2023-05-06T16:33:49.720Z,43.87
2023-05-06T16:38:52.582Z,44.11
2023-05-06T16:43:55.379Z,44.26
2023-05-06T16:48:58.142Z,44.61
2023-05-06T16:54:01.118Z,44.74
2023-05-06T16:59:04.657Z,45.05
2023-05-06T17:04:07.574Z,45.43
2023-05-06T17:09:10.486Z,45.52
2023-05-06T17:14:14.359Z,45.93
2023-05-06T17:19:17.524Z,46.09
2023-05-06T17:24:21.024Z,46.52
2023-05-06T17:29:23.871Z,46.79
2023-05-06T17:34:26.741Z,47.17
2023-05-06T17:39:29.584Z,47.24
2023-05-06T17:44:33.480Z,47.58
2023-05-06T17:49:36.287Z,47.82
2023-05-06T17:54:39.190Z,48.09
2023-05-06T17:59:42.297Z,48.28
2023-05-06T18:04:45.400Z,48.48
2023-05-06T18:09:52.342Z,48.78
2023-05-06T18:14:57.172Z,49.07
2023-05-06T18:20:00.232Z,49.45
2023-05-06T18:25:04.685Z,49.40
2023-05-06T18:30:08.145Z,49.57
2023-05-06T18:35:13.920Z,49.35
2023-05-06T18:40:16.833Z,49.68
2023-05-06T18:45:19.798Z,49.81
2023-05-06T18:50:24.148Z,49.61
2023-05-06T18:55:27.104Z,50.09
2023-05-06T19:00:30.381Z,50.34
2023-05-06T19:05:33.439Z,50.84
2023-05-06T19:10:36.356Z,51.42
2023-05-06T19:15:39.345Z,51.42
2023-05-06T19:20:42.454Z,51.74
2023-05-06T19:25:45.439Z,52.13
2023-05-06T19:30:49.030Z,52.35
2023-05-06T19:35:52.052Z,52.39
2023-05-06T19:40:55.835Z,52.45
2023-05-06T19:45:58.707Z,52.55
2023-05-06T19:51:01.552Z,53.01
2023-05-06T19:56:14.479Z,52.97
2023-05-06T20:01:22.910Z,53.61
2023-05-06T20:06:25.852Z,53.78
2023-05-06T20:11:28.573Z,53.87
2023-05-06T20:16:31.665Z,53.74
2023-05-06T20:21:34.765Z,53.64
2023-05-06T20:26:37.549Z,53.68
2023-05-06T20:31:40.546Z,53.81
2023-05-06T20:36:43.842Z,53.98
2023-05-06T20:41:46.740Z,54.56
2023-05-06T20:46:49.583Z,54.26
2023-05-06T20:51:52.462Z,54.46
2023-05-06T20:56:55.272Z,55.02
2023-05-06T21:01:58.075Z,54.56
2023-05-06T21:07:00.905Z,54.86
2023-05-06T21:12:03.760Z,55.09
2023-05-06T21:17:06.608Z,55.43
2023-05-06T21:22:11.310Z,56.09
2023-05-06T21:27:16.420Z,55.97
2023-05-06T21:32:19.386Z,56.16
2023-05-06T21:37:22.209Z,56.13
2023-05-06T21:42:25.140Z,56.43
2023-05-06T21:47:28.057Z,56.85
2023-05-06T21:52:31.682Z,56.94
2023-05-06T21:57:34.448Z,57.01
2023-05-06T22:02:37.309Z,57.52
2023-05-06T22:07:40.097Z,57.11
2023-05-06T22:12:42.957Z,57.09
2023-05-06T22:17:46.699Z,57.21
2023-05-06T22:22:52.233Z,57.27
2023-05-06T22:27:55.061Z,57.25
2023-05-06T22:32:57.934Z,57.58
2023-05-06T22:38:00.867Z,57.52
2023-05-06T22:43:03.781Z,57.50
2023-05-06T22:48:06.787Z,57.43
2023-05-06T22:53:14.941Z,57.17
2023-05-06T22:58:18.572Z,57.17
2023-05-06T23:03:23.093Z,56.55
2023-05-06T23:08:25.867Z,56.65
2023-05-06T23:13:28.723Z,56.70
2023-05-06T23:18:31.977Z,56.79
2023-05-06T23:23:34.959Z,56.74
2023-05-06T23:28:37.774Z,56.78
2023-05-06T23:33:40.648Z,56.24
2023-05-06T23:38:43.455Z,56.19
2023-05-06T23:43:46.362Z,55.50
2023-05-06T23:48:49.243Z,55.35
2023-05-06T23:53:52.154Z,53.68
2023-05-06T23:58:55.134Z,52.63
